createdAt,value
2022-12-24T00:01:43.935Z,989.60
2022-12-24T00:06:43.912Z,989.57
2022-12-24T00:11:43.773Z,989.61
2022-12-24T00:16:43.810Z,989.75
2022-12-24T00:21:43.669Z,989.75
2022-12-24T00:26:43.567Z,989.86
2022-12-24T00:31:43.515Z,989.95
2022-12-24T00:36:43.444Z,990.01
2022-12-24T00:41:43.399Z,989.86
2022-12-24T00:46:43.443Z,989.76
2022-12-24T00:51:43.257Z,989.93
2022-12-24T00:56:43.205Z,990.16
2022-12-24T01:01:43.195Z,990.29
2022-12-24T01:06:43.051Z,990.24
2022-12-24T01:11:43.003Z,990.23
2022-12-24T01:16:42.905Z,990.30
2022-12-24T01:21:42.839Z,990.55
2022-12-24T01:26:42.840Z,990.57
2022-12-24T01:31:42.824Z,990.63
2022-12-24T01:36:42.671Z,990.64
2022-12-24T01:41:42.593Z,990.71
2022-12-24T01:46:42.571Z,990.68
2022-12-24T01:51:42.450Z,990.76
2022-12-24T01:56:42.384Z,990.82
2022-12-24T02:01:42.411Z,990.96
2022-12-24T02:06:42.244Z,991.05
2022-12-24T02:11:42.205Z,991.05
2022-12-24T02:16:42.224Z,991.01
2022-12-24T02:21:42.037Z,991.13
2022-12-24T02:26:42.055Z,991.20
2022-12-24T02:31:42.009Z,991.37
2022-12-24T02:36:41.902Z,991.40
2022-12-24T02:41:41.835Z,991.50
2022-12-24T02:46:41.739Z,991.60
2022-12-24T02:51:41.658Z,991.68
2022-12-24T02:56:41.617Z,991.59
2022-12-24T03:01:41.697Z,991.67
2022-12-24T03:06:41.457Z,991.84
2022-12-24T03:11:41.384Z,991.79
2022-12-24T03:16:41.391Z,992.01
2022-12-24T03:21:41.257Z,992.02
2022-12-24T03:26:41.232Z,991.97
2022-12-24T03:31:41.202Z,992.04
2022-12-24T03:36:41.048Z,991.99
2022-12-24T03:41:40.967Z,992.11
2022-12-24T03:46:40.937Z,992.10
2022-12-24T03:51:40.860Z,992.13
2022-12-24T03:56:40.801Z,992.26
2022-12-24T04:01:40.794Z,992.13
2022-12-24T04:06:40.647Z,992.28
2022-12-24T04:11:40.570Z,992.19
2022-12-24T04:16:40.619Z,992.39
2022-12-24T04:21:40.437Z,992.39
2022-12-24T04:26:40.387Z,992.36
2022-12-24T04:31:40.369Z,992.40
2022-12-24T04:36:40.227Z,992.55
2022-12-24T04:41:40.190Z,992.66
2022-12-24T04:46:40.157Z,992.79
2022-12-24T04:51:40.051Z,992.78
2022-12-24T04:56:39.968Z,992.73
2022-12-24T05:01:40.013Z,992.85
2022-12-24T05:06:39.868Z,993.14
2022-12-24T05:11:39.767Z,993.23
2022-12-24T05:16:39.759Z,993.33
2022-12-24T05:21:39.639Z,993.34
2022-12-24T05:26:39.630Z,993.56
2022-12-24T05:31:39.524Z,993.56
2022-12-24T05:36:39.450Z,993.68
2022-12-24T05:41:39.455Z,993.65
2022-12-24T05:46:39.394Z,993.76
2022-12-24T05:51:39.264Z,993.80
2022-12-24T05:56:39.233Z,993.84
2022-12-24T06:01:39.231Z,993.94
2022-12-24T06:06:39.049Z,993.97
2022-12-24T06:11:39.049Z,994.11
2022-12-24T06:16:39.040Z,994.33
2022-12-24T06:21:38.896Z,994.56
2022-12-24T06:26:38.777Z,994.42
2022-12-24T06:31:38.745Z,994.53
2022-12-24T06:36:38.682Z,994.55
2022-12-24T06:41:38.571Z,994.60
2022-12-24T06:46:38.634Z,994.60
2022-12-24T06:51:38.474Z,994.77
2022-12-24T06:56:38.371Z,994.94
2022-12-24T07:01:38.389Z,994.91
2022-12-24T07:06:38.271Z,995.13
2022-12-24T07:11:38.208Z,995.26
2022-12-24T07:16:38.283Z,995.29
2022-12-24T07:21:38.070Z,995.32
2022-12-24T07:26:38.043Z,995.45
2022-12-24T07:31:38.094Z,995.55
2022-12-24T07:36:37.915Z,995.58
2022-12-24T07:41:41.666Z,995.62
2022-12-24T07:46:37.782Z,995.70
2022-12-24T07:51:37.673Z,995.85
2022-12-24T07:56:37.642Z,995.86
2022-12-24T08:01:37.633Z,995.87
2022-12-24T08:06:37.491Z,995.96
2022-12-24T08:11:37.372Z,996.07
2022-12-24T08:16:37.383Z,996.04
2022-12-24T08:21:37.242Z,996.21
2022-12-24T08:26:38.084Z,996.35
2022-12-24T08:31:37.180Z,996.35
2022-12-24T08:36:37.042Z,996.55
2022-12-24T08:41:37.076Z,996.70
2022-12-24T08:46:37.407Z,996.73
2022-12-24T08:51:36.917Z,996.88
2022-12-24T08:56:36.808Z,996.91
2022-12-24T09:01:36.858Z,997.07
2022-12-24T09:06:36.641Z,997.12
2022-12-24T09:11:36.622Z,997.14
2022-12-24T09:16:36.668Z,997.16
2022-12-24T09:21:36.465Z,997.12
2022-12-24T09:26:36.430Z,997.30
2022-12-24T09:31:36.444Z,997.43
2022-12-24T09:36:36.390Z,997.45
2022-12-24T09:41:36.251Z,997.49
2022-12-24T09:46:36.136Z,997.54
2022-12-24T09:51:36.075Z,997.65
2022-12-24T09:56:36.030Z,997.80
2022-12-24T10:01:36.021Z,997.74
2022-12-24T10:06:35.862Z,997.81
2022-12-24T10:11:35.808Z,998.01
2022-12-24T10:16:35.786Z,997.95
2022-12-24T10:21:35.658Z,998.07
2022-12-24T10:26:35.618Z,998.25
2022-12-24T10:31:35.574Z,998.13
2022-12-24T10:36:35.483Z,998.24
2022-12-24T10:41:35.387Z,998.20
2022-12-24T10:46:35.377Z,998.19
2022-12-24T10:51:35.273Z,998.19
2022-12-24T10:56:35.219Z,998.34
2022-12-24T11:01:35.207Z,998.40
2022-12-24T11:06:35.051Z,998.42
2022-12-24T11:11:35.069Z,998.55
2022-12-24T11:16:35.118Z,998.40
2022-12-24T11:21:35.352Z,998.55
2022-12-24T11:26:34.791Z,998.61
2022-12-24T11:31:34.792Z,998.68
2022-12-24T11:36:34.709Z,998.80
2022-12-24T11:41:34.650Z,998.98
2022-12-24T11:46:34.567Z,998.93
2022-12-24T11:51:34.539Z,999.00
2022-12-24T11:56:34.541Z,999.05
2022-12-24T12:01:34.408Z,999.10
2022-12-24T12:06:35.012Z,999.10
2022-12-24T12:11:34.257Z,999.14
2022-12-24T12:16:34.186Z,999.19
2022-12-24T12:21:34.010Z,999.27
2022-12-24T12:26:33.987Z,999.21
2022-12-24T12:31:33.944Z,999.29
2022-12-24T12:36:33.808Z,999.22
2022-12-24T12:41:33.819Z,999.33
2022-12-24T12:46:33.750Z,999.25
2022-12-24T12:51:33.772Z,999.37
2022-12-24T12:56:33.557Z,999.38
2022-12-24T13:01:33.607Z,999.25
2022-12-24T13:06:33.419Z,999.29
2022-12-24T13:11:33.380Z,999.32
2022-12-24T13:16:33.361Z,999.37
2022-12-24T13:21:33.404Z,999.46
2022-12-24T13:26:33.186Z,999.46
2022-12-24T13:31:33.174Z,999.38
2022-12-24T13:36:33.044Z,999.45
2022-12-24T13:41:38.824Z,999.43
2022-12-24T13:46:33.957Z,999.52
2022-12-24T13:51:32.820Z,999.51
2022-12-24T13:56:32.791Z,999.54
2022-12-24T14:01:32.816Z,999.56
2022-12-24T14:06:32.692Z,999.70
2022-12-24T14:11:37.841Z,999.71
2022-12-24T14:16:33.538Z,999.73
2022-12-24T14:21:32.442Z,999.78
2022-12-24T14:26:32.341Z,999.87
2022-12-24T14:31:32.352Z,1000.08
2022-12-24T14:36:32.247Z,1000.05
2022-12-24T14:41:32.139Z,1000.22
2022-12-24T14:46:32.106Z,1000.15
2022-12-24T14:51:32.042Z,1000.29
2022-12-24T14:56:31.969Z,1000.33
2022-12-24T15:01:32.292Z,1000.34
2022-12-24T15:06:31.867Z,1000.36
2022-12-24T15:11:31.775Z,1000.42
2022-12-24T15:16:31.754Z,1000.53
2022-12-24T15:21:31.615Z,1000.60
2022-12-24T15:26:31.582Z,1000.67
2022-12-24T15:31:31.574Z,1000.66
2022-12-24T15:36:31.534Z,1000.83
2022-12-24T15:41:31.367Z,1000.86
2022-12-24T15:46:31.340Z,1000.90
2022-12-24T15:51:31.274Z,1000.95
2022-12-24T15:56:31.161Z,1001.06
2022-12-24T16:01:31.192Z,1001.07
2022-12-24T16:06:31.027Z,1001.09
2022-12-24T16:11:30.982Z,1001.52
2022-12-24T16:16:30.912Z,1001.52
2022-12-24T16:21:30.817Z,1001.48
2022-12-24T16:26:30.786Z,1001.54
2022-12-24T16:31:30.724Z,1001.64
2022-12-24T16:36:30.645Z,1001.69
2022-12-24T16:41:30.550Z,1001.87
2022-12-24T16:46:30.636Z,1001.95
2022-12-24T16:51:30.444Z,1001.96
2022-12-24T16:56:30.371Z,1001.97
2022-12-24T17:01:30.392Z,1001.94
2022-12-24T17:06:30.559Z,1001.89
2022-12-24T17:11:30.818Z,1001.99
2022-12-24T17:16:32.092Z,1002.05
2022-12-24T17:21:30.045Z,1002.21
2022-12-24T17:26:29.977Z,1002.19
2022-12-24T17:31:29.963Z,1002.28
2022-12-24T17:36:29.814Z,1002.22
2022-12-24T17:41:29.780Z,1002.19
2022-12-24T17:46:29.711Z,1002.39
2022-12-24T17:51:29.636Z,1002.32
2022-12-24T17:56:29.541Z,1002.35
2022-12-24T18:01:29.536Z,1002.49
2022-12-24T18:06:36.386Z,1002.57
2022-12-24T18:11:29.313Z,1002.67
2022-12-24T18:16:29.362Z,1002.77
2022-12-24T18:21:29.220Z,1002.78
2022-12-24T18:26:29.146Z,1002.61
2022-12-24T18:31:29.082Z,1002.77
2022-12-24T18:36:29.043Z,1002.78
2022-12-24T18:41:29.002Z,1002.82
2022-12-24T18:46:28.962Z,1002.80
2022-12-24T18:51:28.813Z,1002.89
2022-12-24T18:56:28.724Z,1002.90
2022-12-24T19:01:28.939Z,1002.82
2022-12-24T19:06:28.697Z,1002.96
2022-12-24T19:11:28.562Z,1002.91
2022-12-24T19:16:28.848Z,1002.99
2022-12-24T19:21:28.437Z,1003.20
2022-12-24T19:26:28.351Z,1003.22
2022-12-24T19:31:28.311Z,1003.24
2022-12-24T19:36:28.198Z,1003.29
2022-12-24T19:41:28.238Z,1003.47
2022-12-24T19:46:28.089Z,1003.48
2022-12-24T19:51:28.021Z,1003.50
2022-12-24T19:56:27.963Z,1003.47
2022-12-24T20:01:29.158Z,1003.41
2022-12-24T20:06:27.851Z,1003.43
2022-12-24T20:11:28.270Z,1003.53
2022-12-24T20:16:27.737Z,1003.64
2022-12-24T20:21:28.554Z,1003.71
2022-12-24T20:26:28.057Z,1003.80
2022-12-24T20:31:27.543Z,1003.68
2022-12-24T20:36:27.778Z,1003.81
2022-12-24T20:41:27.597Z,1003.82
2022-12-24T20:46:27.347Z,1003.85
2022-12-24T20:51:27.279Z,1003.84
2022-12-24T20:56:27.261Z,1003.76
2022-12-24T21:01:27.255Z,1003.79
2022-12-24T21:06:27.261Z,1003.68
2022-12-24T21:11:27.034Z,1003.82
2022-12-24T21:16:26.904Z,1003.86
2022-12-24T21:21:27.063Z,1003.94
2022-12-24T21:26:26.759Z,1003.92
2022-12-24T21:31:26.789Z,1003.99
2022-12-24T21:36:26.659Z,1003.90
2022-12-24T21:41:26.574Z,1004.04
2022-12-24T21:46:26.550Z,1004.08
2022-12-24T21:51:26.540Z,1004.13
2022-12-24T21:56:26.390Z,1004.25
2022-12-24T22:01:26.386Z,1004.23
2022-12-24T22:06:26.377Z,1004.43
2022-12-24T22:11:29.708Z,1004.30
2022-12-24T22:16:26.451Z,1004.33
2022-12-24T22:21:33.236Z,1004.36
2022-12-24T22:26:32.977Z,1004.53
2022-12-24T22:31:32.938Z,1004.72
2022-12-24T22:36:25.831Z,1004.68
2022-12-24T22:41:25.750Z,1004.70
2022-12-24T22:46:25.878Z,1004.66
2022-12-24T22:51:25.655Z,1004.93
2022-12-24T22:56:25.691Z,1004.81
2022-12-24T23:01:25.590Z,1004.90
2022-12-24T23:06:25.432Z,1004.99
2022-12-24T23:11:25.360Z,1005.14
2022-12-24T23:16:26.454Z,1005.07
2022-12-24T23:21:25.284Z,1005.11
2022-12-24T23:26:25.165Z,1005.30
2022-12-24T23:31:25.689Z,1005.28
2022-12-24T23:36:25.217Z,1005.22
2022-12-24T23:41:25.334Z,1005.19
2022-12-24T23:46:25.728Z,1005.24
2022-12-24T23:51:25.128Z,1005.35
2022-12-24T23:56:24.799Z,1005.28
